Time;durP1;ratioP1;P1;durP2;ratioP2;P2;SDS_P1;SDS_P2;PMS_P1;PMS_P2;Temp;Humidity;BMP_temperature;BMP_pressure;BME280_temperature;BME280_humidity;BME280_pressure;Samples;Min_cycle;Max_cycle;Signal;HPM_P1;HPM_P2
2021/01/05 00:00:23;;;;;;;6.53;3.87;;;3.40;93.20;;;;;;5031753;28;20104;-78
2021/01/05 00:02:51;;;;;;;6.80;4.13;;;3.40;93.20;;;;;;5015346;28;20492;-79
2021/01/05 00:05:19;;;;;;;6.57;3.67;;;3.40;93.20;;;;;;5015328;28;20108;-79
2021/01/05 00:07:46;;;;;;;7.43;3.70;;;3.40;93.20;;;;;;5031712;28;20049;-78
2021/01/05 00:10:12;;;;;;;6.93;3.73;;;3.40;93.20;;;;;;5014680;28;20053;-79
2021/01/05 00:12:39;;;;;;;7.27;3.70;;;3.40;93.30;;;;;;5031694;28;20037;-80
2021/01/05 00:15:07;;;;;;;6.30;3.73;;;3.40;93.20;;;;;;4998415;28;20049;-79
2021/01/05 00:17:34;;;;;;;7.80;4.00;;;3.40;93.20;;;;;;5031196;28;20068;-78
2021/01/05 00:20:07;;;;;;;7.10;3.83;;;3.40;93.20;;;;;;5018660;28;20038;-83
2021/01/05 00:22:33;;;;;;;7.43;3.90;;;3.40;93.20;;;;;;5027688;28;20042;-80
2021/01/05 00:25:00;;;;;;;7.73;4.17;;;3.40;93.20;;;;;;5012458;28;20072;-78
2021/01/05 00:27:26;;;;;;;8.67;5.10;;;3.30;93.20;;;;;;4997179;28;20057;-77
2021/01/05 00:29:53;;;;;;;7.90;4.27;;;3.30;93.20;;;;;;5014993;28;20505;-78
2021/01/05 00:32:24;;;;;;;8.40;4.57;;;3.30;93.20;;;;;;5014580;28;20128;-77
2021/01/05 00:34:51;;;;;;;10.00;5.23;;;3.30;93.10;;;;;;5014699;28;20075;-79
2021/01/05 00:37:18;;;;;;;8.93;4.90;;;3.30;93.20;;;;;;5018700;28;20097;-78
2021/01/05 00:39:46;;;;;;;7.97;5.10;;;3.30;93.20;;;;;;5031403;28;20041;-77
2021/01/05 00:42:13;;;;;;;9.20;4.77;;;3.30;93.20;;;;;;5030723;28;20045;-78
2021/01/05 00:44:40;;;;;;;7.63;4.13;;;3.30;93.20;;;;;;5030411;28;20041;-78
2021/01/05 00:47:07;;;;;;;7.63;4.40;;;3.30;93.20;;;;;;5031525;28;20057;-77
2021/01/05 00:49:36;;;;;;;7.43;4.30;;;3.40;93.20;;;;;;5012605;28;20053;-79
2021/01/05 00:52:02;;;;;;;8.33;4.67;;;3.40;93.20;;;;;;5003019;28;20462;-79
2021/01/05 00:54:33;;;;;;;7.97;3.90;;;3.40;93.20;;;;;;5026950;28;20041;-78
2021/01/05 00:57:08;;;;;;;7.03;3.33;;;3.30;93.20;;;;;;5010913;28;20045;-79
2021/01/05 00:59:40;;;;;;;8.37;4.60;;;3.40;93.20;;;;;;5010828;28;20052;-78
2021/01/05 01:02:08;;;;;;;11.13;5.87;;;3.40;93.40;;;;;;5018339;28;20065;-79
2021/01/05 01:04:36;;;;;;;8.30;5.13;;;3.40;93.10;;;;;;5021366;28;20149;-79
2021/01/05 01:07:04;;;;;;;10.10;5.37;;;3.30;93.10;;;;;;4987640;28;20045;-79
2021/01/05 01:09:33;;;;;;;9.57;4.90;;;3.30;93.10;;;;;;4998500;28;20045;-79
2021/01/05 01:12:13;;;;;;;8.90;5.27;;;3.30;93.10;;;;;;5011822;28;20108;-79
2021/01/05 01:14:43;;;;;;;10.00;5.80;;;3.30;93.10;;;;;;5004005;28;20694;-79
2021/01/05 01:17:10;;;;;;;9.20;4.83;;;3.30;93.20;;;;;;5012101;28;20025;-79
2021/01/05 01:19:37;;;;;;;9.67;5.33;;;3.30;93.20;;;;;;4997861;28;20053;-79
2021/01/05 01:22:06;;;;;;;8.87;4.57;;;3.30;93.20;;;;;;5020795;28;20034;-78
2021/01/05 01:24:34;;;;;;;9.73;4.97;;;3.30;93.20;;;;;;5001490;28;20046;-79
2021/01/05 01:27:18;;;;;;;11.07;5.07;;;3.30;93.20;;;;;;4988177;28;20054;-79
2021/01/05 01:29:45;;;;;;;9.30;4.70;;;3.30;93.20;;;;;;5011414;28;20051;-79
2021/01/05 01:32:13;;;;;;;12.27;5.77;;;3.30;93.20;;;;;;5024162;28;20049;-79
2021/01/05 01:34:39;;;;;;;9.43;5.00;;;3.30;93.20;;;;;;5009323;28;20060;-79
2021/01/05 01:37:09;;;;;;;8.17;4.03;;;3.30;93.20;;;;;;4987576;28;20069;-79
2021/01/05 01:39:38;;;;;;;8.63;4.40;;;3.30;93.20;;;;;;5032381;28;20132;-79
2021/01/05 01:42:07;;;;;;;9.57;4.30;;;3.30;93.20;;;;;;5061066;28;20080;-79
2021/01/05 01:44:37;;;;;;;8.50;4.20;;;3.40;93.20;;;;;;5046157;28;20421;-79
2021/01/05 01:47:10;;;;;;;8.20;4.30;;;3.30;93.20;;;;;;5014017;28;20042;-79
2021/01/05 01:49:38;;;;;;;7.85;4.45;;;3.30;93.10;;;;;;5014537;28;20056;-79
2021/01/05 01:52:08;;;;;;;6.43;3.70;;;3.30;93.20;;;;;;4998462;28;20042;-79
2021/01/05 01:55:06;;;;;;;8.97;5.23;;;3.40;93.20;;;;;;5014128;28;20069;-79
2021/01/05 01:57:53;;;;;;;7.03;3.87;;;3.40;93.10;;;;;;5014116;28;20100;-79
2021/01/05 02:00:59;;;;;;;9.03;4.73;;;3.40;93.20;;;;;;5029786;28;20092;-79
2021/01/05 02:03:38;;;;;;;8.20;4.40;;;3.30;93.10;;;;;;4986823;28;20100;-79
2021/01/05 02:06:20;;;;;;;9.10;4.33;;;3.30;93.10;;;;;;5013103;28;20391;-79
2021/01/05 02:09:06;;;;;;;9.60;5.40;;;3.30;93.20;;;;;;5013588;28;20050;-79
2021/01/05 02:11:56;;;;;;;10.33;5.57;;;3.30;93.10;;;;;;5027050;28;20128;-79
2021/01/05 02:14:51;;;;;;;9.60;4.93;;;3.30;93.10;;;;;;5015506;28;20069;-79
2021/01/05 02:17:52;;;;;;;8.43;4.97;;;3.30;93.20;;;;;;5002314;28;20053;-79
2021/01/05 02:20:42;;;;;;;9.67;4.83;;;3.30;93.20;;;;;;5013533;28;20100;-79
2021/01/05 02:23:35;;;;;;;9.17;4.57;;;3.30;93.20;;;;;;5046741;28;20045;-80
2021/01/05 02:26:19;;;;;;;10.90;6.07;;;3.40;93.20;;;;;;5010982;28;20058;-79
2021/01/05 02:28:54;;;;;;;8.60;4.87;;;3.40;93.20;;;;;;5014072;28;20405;-79
2021/01/05 02:31:44;;;;;;;8.73;4.82;;;3.30;93.20;;;;;;5012058;28;20065;-80
2021/01/05 02:34:16;;;;;;;8.60;4.40;;;3.40;93.30;;;;;;4985634;28;20088;-79
2021/01/05 02:37:18;;;;;;;8.07;5.00;;;3.40;93.30;;;;;;5002350;28;20033;-79
2021/01/05 02:40:21;;;;;;;9.57;4.50;;;3.40;93.20;;;;;;5008511;28;20073;-79
2021/01/05 02:43:18;;;;;;;8.40;4.65;;;3.40;93.30;;;;;;5041728;28;20402;-79
2021/01/05 02:46:09;;;;;;;8.97;5.53;;;3.40;93.20;;;;;;5013479;28;20048;-79
2021/01/05 02:49:04;;;;;;;9.87;4.27;;;3.40;93.20;;;;;;5014159;28;20125;-79
2021/01/05 02:52:24;;;;;;;9.03;5.03;;;3.40;93.20;;;;;;5014589;28;20041;-79
2021/01/05 02:55:51;;;;;;;9.53;5.30;;;3.40;93.20;;;;;;5013953;28;20559;-79
2021/01/05 02:58:58;;;;;;;9.17;5.00;;;3.40;93.20;;;;;;5013862;28;20127;-79
2021/01/05 03:02:40;;;;;;;8.93;4.30;;;3.40;93.20;;;;;;5011289;28;20053;-79
2021/01/05 03:05:25;;;;;;;7.30;3.83;;;3.40;93.20;;;;;;5012673;28;20052;-79
2021/01/05 03:08:11;;;;;;;11.00;5.20;;;3.40;93.20;;;;;;5012560;28;20428;-79
2021/01/05 03:11:05;;;;;;;9.10;5.47;;;3.40;93.20;;;;;;5012807;28;20057;-79
2021/01/05 03:13:56;;;;;;;10.23;5.30;;;3.40;93.20;;;;;;5014208;28;20509;-79
2021/01/05 03:16:48;;;;;;;7.63;4.07;;;3.40;93.20;;;;;;5014340;28;20057;-79
2021/01/05 03:19:52;;;;;;;8.95;5.00;;;3.40;93.20;;;;;;5014238;28;20121;-79
2021/01/05 03:22:47;;;;;;;10.55;5.43;;;3.50;93.20;;;;;;5013921;28;20061;-79
2021/01/05 03:25:37;;;;;;;9.23;4.77;;;3.40;93.20;;;;;;5021062;28;20125;-79
2021/01/05 03:28:27;;;;;;;11.23;5.83;;;3.50;93.20;;;;;;5017193;28;20184;-79
2021/01/05 03:31:24;;;;;;;9.27;4.53;;;3.40;93.20;;;;;;5013078;28;20132;-79
2021/01/05 03:34:09;;;;;;;10.27;5.40;;;3.50;93.20;;;;;;5008444;28;20567;-79
2021/01/05 03:36:54;;;;;;;9.83;5.73;;;3.50;93.30;;;;;;5011043;28;20402;-80
2021/01/05 03:39:39;;;;;;;10.17;5.90;;;3.50;93.20;;;;;;5039279;28;20083;-79
2021/01/05 03:42:24;;;;;;;11.53;5.97;;;3.40;93.10;;;;;;5011124;28;20060;-79
2021/01/05 03:45:26;;;;;;;11.37;5.93;;;3.40;93.10;;;;;;5012978;28;20057;-79
2021/01/05 03:48:11;;;;;;;9.53;4.60;;;3.40;93.20;;;;;;5008950;28;20057;-78
2021/01/05 03:50:56;;;;;;;11.60;5.33;;;3.40;93.20;;;;;;5003170;28;20236;-79
2021/01/05 03:53:41;;;;;;;10.33;5.40;;;3.40;93.20;;;;;;5012270;28;20073;-79
2021/01/05 03:56:27;;;;;;;10.60;5.73;;;3.40;93.20;;;;;;5009651;28;20105;-79
2021/01/05 03:59:22;;;;;;;10.57;5.53;;;3.40;93.20;;;;;;4992616;28;20077;-78
2021/01/05 04:02:07;;;;;;;11.73;6.33;;;3.40;93.20;;;;;;4992019;28;20065;-79
2021/01/05 04:04:34;;;;;;;12.23;6.47;;;3.40;93.20;;;;;;5009209;28;20108;-79
2021/01/05 04:07:00;;;;;;;12.97;6.97;;;3.40;93.20;;;;;;5012374;28;20041;-79
2021/01/05 04:09:26;;;;;;;12.87;6.87;;;3.40;93.20;;;;;;5012198;28;20049;-79
2021/01/05 04:11:53;;;;;;;12.17;6.27;;;3.40;93.20;;;;;;5010977;28;20038;-79
2021/01/05 04:14:20;;;;;;;12.47;6.37;;;3.40;93.20;;;;;;5011278;28;20552;-79
2021/01/05 04:16:47;;;;;;;12.30;6.33;;;3.40;93.20;;;;;;5011675;28;20113;-79
2021/01/05 04:19:14;;;;;;;12.33;6.23;;;3.40;93.20;;;;;;5001866;28;20395;-79
2021/01/05 04:21:41;;;;;;;12.73;6.33;;;3.40;93.20;;;;;;5011175;28;20437;-79
2021/01/05 04:24:08;;;;;;;12.87;6.90;;;3.40;93.20;;;;;;5012441;28;20052;-79
2021/01/05 04:26:34;;;;;;;14.90;7.43;;;3.40;93.20;;;;;;5016066;28;20050;-79
2021/01/05 04:29:01;;;;;;;14.87;8.10;;;3.40;93.20;;;;;;5011846;28;20050;-78
2021/01/05 04:31:28;;;;;;;15.50;7.63;;;3.40;93.10;;;;;;5012771;28;20397;-79
2021/01/05 04:33:55;;;;;;;12.73;6.20;;;3.40;93.20;;;;;;4995823;28;20045;-79
2021/01/05 04:36:21;;;;;;;11.90;6.07;;;3.40;93.30;;;;;;4992361;28;20046;-79
2021/01/05 04:38:48;;;;;;;10.97;5.10;;;3.40;93.30;;;;;;5012976;28;20455;-79
2021/01/05 04:41:19;;;;;;;11.60;5.37;;;3.40;93.30;;;;;;5011854;28;20069;-79
2021/01/05 04:43:53;;;;;;;13.10;6.30;;;3.40;93.30;;;;;;5011583;28;20046;-79
2021/01/05 04:46:27;;;;;;;10.27;5.70;;;3.40;93.30;;;;;;5010856;28;20054;-79
2021/01/05 04:49:26;;;;;;;10.03;4.70;;;3.40;93.30;;;;;;5011112;28;20038;-79
2021/01/05 04:52:01;;;;;;;11.23;5.63;;;3.50;93.30;;;;;;5011238;28;20054;-79
2021/01/05 04:54:38;;;;;;;13.33;5.97;;;3.50;93.30;;;;;;5011527;28;20401;-79
2021/01/05 04:57:13;;;;;;;13.00;6.13;;;3.40;93.30;;;;;;5026353;28;20077;-79
2021/01/05 04:59:47;;;;;;;12.37;6.60;;;3.50;93.30;;;;;;5012352;28;20088;-79
2021/01/05 05:02:29;;;;;;;15.20;7.30;;;3.50;93.30;;;;;;5011904;28;20767;-79
2021/01/05 05:05:25;;;;;;;15.27;6.83;;;3.40;93.20;;;;;;5012695;28;20099;-79
2021/01/05 05:08:14;;;;;;;10.67;5.97;;;3.40;93.20;;;;;;5008123;28;20050;-79
2021/01/05 05:10:50;;;;;;;12.87;6.10;;;3.40;93.20;;;;;;5013505;28;20133;-79
2021/01/05 05:13:40;;;;;;;12.70;7.03;;;3.40;93.20;;;;;;5015939;28;20100;-79
2021/01/05 05:16:36;;;;;;;12.53;6.80;;;3.40;93.20;;;;;;5043589;28;20046;-78
2021/01/05 05:19:38;;;;;;;11.17;5.80;;;3.40;93.20;;;;;;5013800;28;20457;-79
2021/01/05 05:22:16;;;;;;;11.33;6.33;;;3.40;93.30;;;;;;4994328;28;20520;-79
2021/01/05 05:25:03;;;;;;;10.70;5.50;;;3.40;93.30;;;;;;5010216;28;20060;-79
2021/01/05 05:27:54;;;;;;;12.77;6.63;;;3.40;93.30;;;;;;5038852;28;20417;-79
2021/01/05 05:30:36;;;;;;;11.27;5.63;;;3.40;93.30;;;;;;5008957;28;20125;-80
2021/01/05 05:33:18;;;;;;;13.37;6.53;;;3.40;93.30;;;;;;5014297;28;20046;-79
2021/01/05 05:36:05;;;;;;;12.17;5.63;;;3.40;93.30;;;;;;5004901;28;20053;-79
2021/01/05 05:38:47;;;;;;;10.73;5.37;;;3.30;93.30;;;;;;5014281;28;20108;-79
2021/01/05 05:41:22;;;;;;;13.43;6.63;;;3.40;93.30;;;;;;5015633;28;20497;-79
2021/01/05 05:44:25;;;;;;;11.17;5.60;;;3.40;93.40;;;;;;5031115;28;20453;-79
2021/01/05 05:47:09;;;;;;;11.38;6.38;;;3.40;93.40;;;;;;5046833;28;20080;-79
2021/01/05 05:49:41;;;;;;;;;;;3.40;93.40;;;;;;5048388;28;20450;-79
2021/01/05 05:52:24;;;;;;;10.40;6.13;;;3.40;93.40;;;;;;5015556;28;19921;-79
2021/01/05 05:54:52;;;;;;;12.25;6.43;;;3.40;93.40;;;;;;5002826;28;20121;-79
2021/01/05 05:57:29;;;;;;;11.90;5.43;;;3.40;93.40;;;;;;4998537;28;20045;-79
2021/01/05 06:00:22;;;;;;;11.10;5.43;;;3.40;93.40;;;;;;5015372;28;20038;-79
2021/01/05 06:02:49;;;;;;;;;;;3.40;93.40;;;;;;5013345;28;20046;-79
2021/01/05 06:05:18;;;;;;;11.60;5.67;;;3.40;93.50;;;;;;5015179;28;20266;-79
2021/01/05 06:07:44;;;;;;;16.20;6.70;;;3.40;93.40;;;;;;5013927;28;20413;-79
2021/01/05 06:10:11;;;;;;;10.87;5.10;;;3.40;93.40;;;;;;5047482;28;20140;-79
2021/01/05 06:12:38;;;;;;;10.27;5.33;;;3.40;93.50;;;;;;5014299;28;20088;-79
2021/01/05 06:15:05;;;;;;;11.53;5.97;;;3.40;93.40;;;;;;5014329;28;20038;-79
2021/01/05 06:17:31;;;;;;;12.67;5.77;;;3.50;93.50;;;;;;5014555;28;20046;-79
2021/01/05 06:19:58;;;;;;;13.43;6.83;;;3.50;93.40;;;;;;5015601;28;20478;-79
2021/01/05 06:22:24;;;;;;;11.97;5.57;;;3.50;93.40;;;;;;5013733;28;20073;-79
2021/01/05 06:24:51;;;;;;;12.60;7.00;;;3.50;93.40;;;;;;5013759;28;20131;-80
2021/01/05 06:27:17;;;;;;;12.17;6.97;;;3.50;93.30;;;;;;4996978;28;20055;-79
2021/01/05 06:29:44;;;;;;;11.10;6.07;;;3.50;93.30;;;;;;4996412;28;20053;-79
2021/01/05 06:32:10;;;;;;;11.43;5.27;;;3.50;93.40;;;;;;5013905;28;20038;-79
2021/01/05 06:34:36;;;;;;;10.70;5.10;;;3.50;93.30;;;;;;4994238;28;20047;-79
2021/01/05 06:37:03;;;;;;;9.57;5.33;;;3.50;93.30;;;;;;5029651;28;20048;-79
2021/01/05 06:39:30;;;;;;;10.47;4.90;;;3.60;93.40;;;;;;4994710;28;20454;-79
2021/01/05 06:41:56;;;;;;;10.97;5.07;;;3.60;93.40;;;;;;5028115;28;20041;-80
2021/01/05 06:44:23;;;;;;;11.73;5.30;;;3.60;93.40;;;;;;5014065;28;20115;-79
2021/01/05 06:46:53;;;;;;;12.40;5.23;;;3.60;93.40;;;;;;5013217;28;20053;-78
2021/01/05 06:49:38;;;;;;;12.07;5.93;;;3.60;93.40;;;;;;5006037;28;20056;-79
2021/01/05 06:52:05;;;;;;;12.70;6.83;;;3.60;93.40;;;;;;4994113;28;20042;-79
2021/01/05 06:54:32;;;;;;;14.17;5.97;;;3.60;93.40;;;;;;5014204;28;20038;-79
2021/01/05 06:56:59;;;;;;;13.27;6.73;;;3.60;93.60;;;;;;5046389;28;20097;-79
2021/01/05 06:59:27;;;;;;;12.80;6.77;;;3.60;93.30;;;;;;4994045;28;20498;-79
2021/01/05 07:02:03;;;;;;;13.33;6.03;;;3.60;93.40;;;;;;5004861;28;20108;-79
2021/01/05 07:04:30;;;;;;;11.13;5.40;;;3.60;93.40;;;;;;5013360;28;20057;-79
2021/01/05 07:06:57;;;;;;;10.57;5.30;;;3.60;93.40;;;;;;5013354;28;20042;-79
2021/01/05 07:09:28;;;;;;;10.90;5.10;;;3.60;93.40;;;;;;5013126;28;20516;-79
2021/01/05 07:11:54;;;;;;;12.27;6.30;;;3.60;93.40;;;;;;4996431;28;20092;-79
2021/01/05 07:14:24;;;;;;;12.80;6.20;;;3.60;93.40;;;;;;5029640;28;20100;-80
2021/01/05 07:16:51;;;;;;;11.97;5.67;;;3.60;93.40;;;;;;5013188;28;20038;-79
2021/01/05 07:19:17;;;;;;;12.07;6.33;;;3.60;93.70;;;;;;5013128;28;20034;-79
2021/01/05 07:21:44;;;;;;;10.87;5.47;;;3.60;93.40;;;;;;4996466;28;20045;-79
2021/01/05 07:24:12;;;;;;;11.63;5.93;;;3.60;93.40;;;;;;5014351;28;20363;-79
2021/01/05 07:26:42;;;;;;;11.17;5.40;;;3.60;93.40;;;;;;5012959;28;20116;-79
2021/01/05 07:29:12;;;;;;;10.27;4.90;;;3.60;93.40;;;;;;5029454;28;20498;-79
2021/01/05 07:31:42;;;;;;;9.70;4.43;;;3.70;93.40;;;;;;5012770;28;20073;-79
2021/01/05 07:34:10;;;;;;;9.30;4.10;;;3.70;93.50;;;;;;4995656;28;20057;-78
2021/01/05 07:36:40;;;;;;;9.47;4.67;;;3.70;93.50;;;;;;4996572;28;20038;-78
2021/01/05 07:39:18;;;;;;;7.17;3.93;;;3.70;93.50;;;;;;5029141;28;20041;-80
2021/01/05 07:41:45;;;;;;;13.33;6.47;;;3.70;93.50;;;;;;5014112;28;20111;-79
2021/01/05 07:44:12;;;;;;;10.77;5.83;;;3.70;93.40;;;;;;4996084;28;20141;-79
2021/01/05 07:46:39;;;;;;;12.77;6.73;;;3.70;93.40;;;;;;5012120;28;20108;-79
2021/01/05 07:49:05;;;;;;;11.77;6.13;;;3.70;93.40;;;;;;5012686;28;20379;-79
2021/01/05 07:51:32;;;;;;;11.47;5.53;;;3.70;93.40;;;;;;4992552;28;20065;-79
2021/01/05 07:53:58;;;;;;;12.20;6.43;;;3.70;93.40;;;;;;5001236;28;20084;-79
2021/01/05 07:56:25;;;;;;;12.23;5.60;;;3.70;93.40;;;;;;5012360;28;20067;-79
2021/01/05 07:58:53;;;;;;;11.67;6.17;;;3.70;93.40;;;;;;5012379;28;20052;-78
2021/01/05 08:01:20;;;;;;;13.50;6.57;;;3.70;93.40;;;;;;4992341;28;20050;-79
2021/01/05 08:03:46;;;;;;;13.93;7.00;;;3.70;93.40;;;;;;5003547;28;20050;-78
2021/01/05 08:06:13;;;;;;;12.17;5.87;;;3.70;93.40;;;;;;4995773;28;20088;-78
2021/01/05 08:08:41;;;;;;;12.90;6.67;;;3.70;93.40;;;;;;4995965;28;20042;-79
2021/01/05 08:11:07;;;;;;;11.83;6.67;;;3.70;93.40;;;;;;4995469;28;20258;-79
2021/01/05 08:13:33;;;;;;;15.37;7.00;;;3.70;93.40;;;;;;4995840;28;20061;-78
2021/01/05 08:16:01;;;;;;;11.83;5.83;;;3.70;93.40;;;;;;4995323;28;20044;-78
2021/01/05 08:18:27;;;;;;;11.90;6.23;;;3.70;93.40;;;;;;5011736;28;20383;-78
2021/01/05 08:20:54;;;;;;;11.83;5.83;;;3.70;93.40;;;;;;5011849;28;20073;-78
2021/01/05 08:23:20;;;;;;;12.07;5.60;;;3.70;93.40;;;;;;5011223;28;20045;-75
2021/01/05 08:25:47;;;;;;;12.43;6.40;;;3.70;93.40;;;;;;5012116;28;20048;-75
2021/01/05 08:28:13;;;;;;;12.10;6.20;;;3.80;93.40;;;;;;5014666;28;20108;-75
2021/01/05 08:30:40;;;;;;;11.33;5.80;;;3.80;93.50;;;;;;5009830;28;20057;-75
2021/01/05 08:33:09;;;;;;;11.63;5.80;;;3.80;93.40;;;;;;4978061;28;20038;-75
2021/01/05 08:35:37;;;;;;;11.63;6.50;;;3.80;93.40;;;;;;5011954;28;20141;-75
2021/01/05 08:38:07;;;;;;;13.47;7.03;;;3.80;93.40;;;;;;4994081;28;20049;-75
2021/01/05 08:40:37;;;;;;;14.97;7.27;;;3.70;93.30;;;;;;4995104;28;20046;-75
2021/01/05 08:43:06;;;;;;;13.47;6.70;;;3.80;93.40;;;;;;5010387;28;20057;-74
2021/01/05 08:45:33;;;;;;;14.13;7.30;;;3.80;93.40;;;;;;5012046;28;20076;-75
2021/01/05 08:48:00;;;;;;;12.43;6.47;;;3.80;93.40;;;;;;5016880;28;20136;-74
2021/01/05 08:50:29;;;;;;;11.87;6.27;;;3.80;93.40;;;;;;5016293;28;20049;-74
2021/01/05 08:53:01;;;;;;;11.43;5.50;;;3.80;93.40;;;;;;5025209;28;20069;-74
2021/01/05 08:55:27;;;;;;;10.07;5.07;;;3.80;93.40;;;;;;5009955;28;20124;-74
2021/01/05 08:57:54;;;;;;;10.50;4.83;;;3.80;93.40;;;;;;5017795;28;20048;-75
2021/01/05 09:00:22;;;;;;;9.13;5.07;;;3.90;93.40;;;;;;5017851;28;20041;-74
2021/01/05 09:02:48;;;;;;;10.53;5.57;;;3.90;93.40;;;;;;5000819;28;20551;-74
2021/01/05 09:05:16;;;;;;;14.77;6.97;;;3.90;93.30;;;;;;5000594;28;20053;-74
2021/01/05 09:07:42;;;;;;;12.57;7.27;;;3.80;93.20;;;;;;5021799;28;20501;-74
2021/01/05 09:10:19;;;;;;;13.63;7.77;;;3.80;93.30;;;;;;5038902;28;20433;-74
2021/01/05 09:12:45;;;;;;;13.60;7.23;;;3.80;93.20;;;;;;5008877;28;20046;-74
2021/01/05 09:15:15;;;;;;;12.67;6.20;;;3.80;93.20;;;;;;5024962;28;20068;-74
2021/01/05 09:17:46;;;;;;;12.37;6.87;;;3.80;93.30;;;;;;5012209;28;20551;-73
2021/01/05 09:20:21;;;;;;;13.50;7.27;;;3.80;93.30;;;;;;5012742;28;20413;-74
2021/01/05 09:22:48;;;;;;;14.10;7.43;;;3.80;93.20;;;;;;5016459;28;20092;-73
2021/01/05 09:25:15;;;;;;;12.43;6.13;;;3.80;93.30;;;;;;5025138;28;20072;-74
2021/01/05 09:27:42;;;;;;;11.90;6.27;;;3.80;93.20;;;;;;5030682;28;20498;-74
2021/01/05 09:30:14;;;;;;;12.10;6.37;;;3.90;93.20;;;;;;5016524;28;20057;-73
2021/01/05 09:32:41;;;;;;;12.88;7.03;;;3.90;93.20;;;;;;5016073;28;20111;-75
2021/01/05 09:35:09;;;;;;;12.77;6.10;;;3.90;93.20;;;;;;5011781;28;20038;-74
2021/01/05 09:37:43;;;;;;;12.07;6.70;;;3.90;93.20;;;;;;4997159;28;20069;-73
2021/01/05 09:40:10;;;;;;;10.23;5.50;;;3.90;93.10;;;;;;5012870;28;20046;-73
2021/01/05 09:42:37;;;;;;;11.80;6.33;;;3.90;93.20;;;;;;5017820;28;20049;-74
2021/01/05 09:45:06;;;;;;;10.93;5.43;;;4.00;93.20;;;;;;5016015;28;20050;-74
2021/01/05 09:47:33;;;;;;;11.10;6.40;;;4.00;93.20;;;;;;5016772;28;20483;-73
2021/01/05 09:50:00;;;;;;;9.80;5.13;;;4.00;93.10;;;;;;5017325;28;20053;-73
2021/01/05 09:52:26;;;;;;;12.37;6.40;;;4.00;93.10;;;;;;5030024;28;20048;-73
2021/01/05 09:54:53;;;;;;;10.13;5.90;;;4.00;93.10;;;;;;5016103;28;20030;-73
2021/01/05 09:57:19;;;;;;;8.23;4.60;;;4.00;93.10;;;;;;5015878;28;20564;-78
2021/01/05 09:59:46;;;;;;;11.53;6.07;;;4.00;93.10;;;;;;5015080;28;20132;-77
2021/01/05 10:02:13;;;;;;;11.30;6.00;;;4.00;93.00;;;;;;5018597;28;20061;-76
2021/01/05 10:04:40;;;;;;;10.37;5.83;;;4.00;93.00;;;;;;5016528;28;20772;-77
2021/01/05 10:07:08;;;;;;;9.13;5.70;;;3.90;92.90;;;;;;5014955;28;20108;-79
2021/01/05 10:09:36;;;;;;;10.20;6.23;;;4.00;93.00;;;;;;5012903;28;20041;-77
2021/01/05 10:12:04;;;;;;;9.67;5.87;;;3.90;93.00;;;;;;5013025;28;20498;-76
2021/01/05 10:14:31;;;;;;;8.80;5.30;;;3.90;92.90;;;;;;5014903;28;20110;-76
2021/01/05 10:16:58;;;;;;;8.47;5.53;;;3.90;92.90;;;;;;4995676;28;20042;-76
2021/01/05 10:19:26;;;;;;;9.43;5.20;;;3.90;92.90;;;;;;5013307;28;20493;-77
2021/01/05 10:21:53;;;;;;;8.93;5.60;;;4.00;92.90;;;;;;5014426;28;20053;-76
2021/01/05 10:24:21;;;;;;;9.83;6.43;;;4.00;92.90;;;;;;5003686;28;20420;-80
2021/01/05 10:26:55;;;;;;;12.73;6.50;;;3.90;92.80;;;;;;5014571;28;20046;-76
2021/01/05 10:29:23;;;;;;;10.47;5.80;;;4.00;92.80;;;;;;5014817;28;20064;-76
2021/01/05 10:31:51;;;;;;;9.73;6.30;;;4.00;92.80;;;;;;5029771;28;20050;-77
2021/01/05 10:34:23;;;;;;;9.93;6.03;;;4.00;92.80;;;;;;5014873;28;20044;-76
2021/01/05 10:36:55;;;;;;;10.60;6.13;;;4.00;92.80;;;;;;5014501;28;20413;-77
2021/01/05 10:39:22;;;;;;;9.27;5.43;;;3.90;92.70;;;;;;5046847;28;20046;-79
2021/01/05 10:41:52;;;;;;;9.33;5.30;;;4.00;92.80;;;;;;5014836;28;20546;-77
2021/01/05 10:44:21;;;;;;;8.50;5.03;;;4.00;92.80;;;;;;5042712;28;20046;-76
2021/01/05 10:46:48;;;;;;;10.27;5.97;;;4.00;92.80;;;;;;5039115;28;20120;-76
2021/01/05 10:49:15;;;;;;;9.53;5.70;;;4.00;92.80;;;;;;5014074;28;20382;-76
2021/01/05 10:51:49;;;;;;;10.67;5.83;;;4.10;92.70;;;;;;5014850;28;20042;-78
2021/01/05 10:54:18;;;;;;;9.70;5.13;;;4.10;92.80;;;;;;5014686;28;20057;-77
2021/01/05 10:56:45;;;;;;;10.13;5.60;;;4.10;92.70;;;;;;5015073;28;20038;-77
2021/01/05 10:59:16;;;;;;;9.07;5.50;;;4.10;92.70;;;;;;5013515;28;20045;-78
2021/01/05 11:01:42;;;;;;;10.27;5.50;;;4.10;92.70;;;;;;4993939;28;20066;-78
2021/01/05 11:04:09;;;;;;;11.60;6.43;;;4.10;92.70;;;;;;5007964;28;20046;-77
2021/01/05 11:06:37;;;;;;;8.33;5.13;;;4.10;92.60;;;;;;5012997;28;20494;-77
2021/01/05 11:09:05;;;;;;;10.17;5.83;;;4.10;92.60;;;;;;5018690;28;20047;-74
2021/01/05 11:11:31;;;;;;;10.03;5.23;;;4.10;92.70;;;;;;5021614;28;20041;-74
2021/01/05 11:13:58;;;;;;;10.73;6.10;;;4.10;92.70;;;;;;5013223;28;20077;-74
2021/01/05 11:16:25;;;;;;;9.70;5.67;;;4.10;92.70;;;;;;5023163;28;20121;-74
2021/01/05 11:18:52;;;;;;;8.00;4.80;;;4.10;92.60;;;;;;5053066;28;20045;-77
2021/01/05 11:21:18;;;;;;;8.30;5.23;;;4.10;92.70;;;;;;5018796;28;20034;-77
2021/01/05 11:23:45;;;;;;;8.13;4.80;;;4.10;92.70;;;;;;5012485;28;20038;-77
2021/01/05 11:26:12;;;;;;;7.97;4.47;;;4.20;92.70;;;;;;5012512;28;20042;-74
2021/01/05 11:28:50;;;;;;;9.50;5.50;;;4.20;92.70;;;;;;5013032;28;20067;-73
2021/01/05 11:31:17;;;;;;;12.33;6.23;;;4.10;92.60;;;;;;5001179;28;20069;-76
2021/01/05 11:33:44;;;;;;;10.90;6.13;;;4.10;92.60;;;;;;5013088;28;20037;-73
2021/01/05 11:36:11;;;;;;;12.93;6.90;;;4.10;92.60;;;;;;5011869;28;20129;-73
2021/01/05 11:38:37;;;;;;;12.00;6.67;;;4.10;92.60;;;;;;5012493;28;20034;-73
2021/01/05 11:41:23;;;;;;;9.95;5.75;;;4.10;92.60;;;;;;5042835;28;20046;-73
2021/01/05 11:43:49;;;;;;;9.00;5.20;;;4.10;92.60;;;;;;5012279;28;20030;-74
2021/01/05 11:46:16;;;;;;;11.40;6.37;;;4.10;92.70;;;;;;5011899;28;20188;-74
2021/01/05 11:48:42;;;;;;;10.83;6.10;;;4.10;92.60;;;;;;4989856;28;20532;-78
2021/01/05 11:51:16;;;;;;;11.90;6.37;;;4.10;92.60;;;;;;4995433;28;20037;-76
2021/01/05 11:53:44;;;;;;;11.13;5.80;;;4.20;92.60;;;;;;5005075;28;20449;-78
2021/01/05 11:56:20;;;;;;;10.20;5.53;;;4.10;92.60;;;;;;5013315;28;20038;-78
2021/01/05 11:58:47;;;;;;;11.60;6.00;;;4.20;92.70;;;;;;4995753;28;20455;-79
2021/01/05 12:01:14;;;;;;;11.67;5.73;;;4.20;92.70;;;;;;5013196;28;20041;-78
2021/01/05 12:03:40;;;;;;;12.90;6.47;;;4.10;92.70;;;;;;5013163;28;20122;-78
2021/01/05 12:06:20;;;;;;;10.53;5.90;;;4.20;92.70;;;;;;5009671;28;20085;-78
2021/01/05 12:08:47;;;;;;;12.07;5.90;;;4.20;92.70;;;;;;5021091;28;20099;-78
2021/01/05 12:11:21;;;;;;;12.23;6.37;;;4.20;92.70;;;;;;4995801;28;20034;-78
2021/01/05 12:13:48;;;;;;;11.48;6.32;;;4.20;92.70;;;;;;5007990;28;20112;-73
2021/01/05 12:16:36;;;;;;;12.47;6.20;;;4.20;92.70;;;;;;5011781;28;20042;-73
2021/01/05 12:19:05;;;;;;;11.63;5.73;;;4.20;93.00;;;;;;5010889;28;20464;-73
2021/01/05 12:21:37;;;;;;;12.17;6.80;;;4.20;93.00;;;;;;5011225;28;20044;-73
2021/01/05 12:24:06;;;;;;;13.02;6.70;;;4.20;92.70;;;;;;5010735;28;20782;-73
2021/01/05 12:26:38;;;;;;;12.30;6.60;;;4.20;92.70;;;;;;5010623;28;20042;-73
2021/01/05 12:29:08;;;;;;;15.63;7.77;;;4.20;92.80;;;;;;5010792;28;20049;-73
2021/01/05 12:31:54;;;;;;;16.33;8.30;;;4.20;92.80;;;;;;5010124;28;20049;-73
2021/01/05 12:34:32;;;;;;;12.67;6.70;;;4.30;92.70;;;;;;5011437;28;20046;-75
2021/01/05 12:37:03;;;;;;;12.73;7.07;;;4.30;92.70;;;;;;5010662;28;20038;-74
2021/01/05 12:39:32;;;;;;;12.97;7.07;;;4.30;92.70;;;;;;5009023;28;20041;-74
2021/01/05 12:42:00;;;;;;;14.73;7.03;;;4.20;92.70;;;;;;5008042;28;20038;-73
2021/01/05 12:44:28;;;;;;;13.50;7.80;;;4.30;92.70;;;;;;5009281;28;20041;-74
2021/01/05 12:46:56;;;;;;;15.67;8.90;;;4.20;92.70;;;;;;5009913;28;20557;-74
2021/01/05 12:49:22;;;;;;;12.27;7.03;;;4.30;92.70;;;;;;4997304;28;20572;-74
2021/01/05 12:51:49;;;;;;;16.47;9.03;;;4.30;92.70;;;;;;4982736;28;20071;-74
2021/01/05 12:54:26;;;;;;;13.33;8.60;;;4.30;92.70;;;;;;4993647;28;20077;-74
2021/01/05 12:57:05;;;;;;;15.20;8.40;;;4.30;92.70;;;;;;4994671;28;20042;-74
2021/01/05 12:59:32;;;;;;;12.00;6.23;;;4.30;92.70;;;;;;4990959;28;20093;-80
2021/01/05 13:02:01;;;;;;;15.10;8.37;;;4.30;92.70;;;;;;5018456;28;20073;-81
2021/01/05 13:04:28;;;;;;;12.87;7.93;;;4.30;92.60;;;;;;5011084;28;20042;-79
2021/01/05 13:06:55;;;;;;;13.87;7.67;;;4.30;92.60;;;;;;5011175;28;20285;-80
2021/01/05 13:09:22;;;;;;;13.97;7.93;;;4.30;92.60;;;;;;5010999;28;20050;-81
2021/01/05 13:11:49;;;;;;;14.37;7.97;;;4.30;92.70;;;;;;5009466;28;20117;-79
2021/01/05 13:14:19;;;;;;;13.33;7.63;;;4.30;92.60;;;;;;4987477;28;20053;-82
2021/01/05 13:16:46;;;;;;;12.67;7.13;;;4.30;92.60;;;;;;5006870;28;20096;-80
2021/01/05 13:19:19;;;;;;;11.60;6.43;;;4.30;92.70;;;;;;5007567;28;20056;-79
2021/01/05 13:21:47;;;;;;;10.40;5.78;;;4.30;92.70;;;;;;5012724;28;20076;-79